Weather observations for the past three days for
Los Angeles, Whiteman Airport
| Date | Time (pdt) | Wind (mph) | Vis. (mi.) | Weather | Sky Cond. | Temperature (ºF) | Relative Humidity | Wind Chill (°F) | Heat Index (°F) | Pressure | Precipitation (in) | ||||||
|---|---|---|---|---|---|---|---|---|---|---|---|---|---|---|---|---|---|
| Air | Dwpt | 6 hour | altimeter (in) | sea level (mb) | 1 hr | 3 hr | 6 hr | ||||||||||
| Max. | Min. | ||||||||||||||||
| 05 | 19:00 | Calm | 10.00 | Mostly Cloudy | BKN044 | 60.8 | 44.6 | 55% | 29.98 | 0.0 | |||||||
| 05 | 18:00 | Calm | 10.00 | Overcast | OVC045 | 62.6 | 44.6 | 52% | 29.97 | 0.0 | |||||||
| 05 | 16:55 | SE 9 | 10.00 | Mostly Cloudy | BKN046 | 62.6 | 42.8 | 49% | 29.95 | 0.0 | |||||||
| 05 | 15:55 | SE 8 G 15 | 10.00 | Mostly Cloudy | BKN050 | 64.4 | 41 | 43% | 29.96 | 0.0 | |||||||
| 05 | 14:55 | SE 9 G 17 | 10.00 | Mostly Cloudy | BKN055 | 66.2 | 41 | 40% | 29.96 | 0.0 | |||||||
| 05 | 13:55 | Calm | 10.00 | Overcast | OVC044 | 64.4 | 42.8 | 46% | 29.96 | 0.0 | |||||||
| 05 | 12:55 | Calm | 10.00 | Overcast | BKN047 OVC060 | 64.4 | 41 | 43% | 29.97 | 0.0 | |||||||
| 05 | 12:00 | Calm | 10.00 | Overcast | OVC046 | 64.4 | 41 | 43% | 29.97 | 0.0 | |||||||
| 05 | 10:55 | Calm | 10.00 | Mostly Cloudy | BKN046 | 59 | 42.8 | 55% | 29.98 | 0.0 | |||||||
| 05 | 09:55 | Calm | 10.00 | Overcast | OVC050 | 57.2 | 44.6 | 63% | 29.97 | 0.0 | |||||||
| 05 | 08:55 | Calm | 10.00 | Overcast | OVC060 | 57.2 | 44.6 | 63% | 29.96 | 0.0 | |||||||
| 05 | 07:55 | NE 3 | 10.00 | Clear | SKC | 55.4 | 44.6 | 67% | 29.95 | 0.0 | |||||||
| 04 | 18:55 | SW 7 G 15 | 10.00 | Overcast | SCT036 BKN046 OVC075 | 62.6 | 44.6 | 52% | 29.96 | 0.0 | |||||||
| 04 | 16:55 | S 8 G 15 | 10.00 | Mostly Cloudy | BKN060 | 64.4 | 44.6 | 49% | 29.95 | 0.0 | |||||||
| 04 | 15:55 | SE 9 G 17 | 10.00 | Clear | SKC | 64.4 | 44.6 | 49% | 29.96 | 0.0 | |||||||
| 04 | 14:55 | S 12 G 21 | 10.00 | Mostly Cloudy | BKN055 | 64.4 | 44.6 | 49% | 29.99 | 0.0 | |||||||
| 04 | 13:55 | SE 12 G 18 | 10.00 | Mostly Cloudy | BKN047 | 66.2 | 42.8 | 43% | 29.98 | 0.0 | |||||||
| 04 | 12:55 | E 12 G 18 | 10.00 | Clear | SKC | 64.4 | 44.6 | 49% | 29.99 | 0.0 | |||||||
| 04 | 11:55 | SE 7 G 16 | 10.00 | Clear | SKC | 62.6 | 46.4 | 56% | 30 | 0.0 | |||||||
| 04 | 10:55 | SE 8 | 10.00 | Mostly Cloudy | FEW042 BKN060 | 62.6 | 41 | 45% | 30 | 0.0 | |||||||
| 04 | 09:55 | SE 8 | 10.00 | Mostly Cloudy | SCT024 BKN034 | 60.8 | 46.4 | 59% | 30 | 0.0 | |||||||
| 04 | 08:55 | S 3 | 10.00 | Mostly Cloudy | FEW020 BKN030 | 57.2 | 48.2 | 72% | 30 | 0.0 | |||||||
| 04 | 07:55 | S 3 | 10.00 | Partly Cloudy | SCT020 | 57.2 | 50 | 77% | 29.99 | 0.0 | |||||||
| 03 | 18:55 | SE 9 | 10.00 | Overcast | BKN038 OVC047 | 60.8 | 44.6 | 55% | 29.94 | 0.0 | |||||||
| 03 | 16:55 | E 8 | 10.00 | Overcast | OVC040 | 62.6 | 46.4 | 56% | 29.92 | 0.0 | |||||||
| 03 | 15:55 | E 6 | 10.00 | Overcast | OVC030 | 60.8 | 46.4 | 59% | 29.93 | 0.0 | |||||||
| 03 | 14:55 | S 5 | 10.00 | Overcast | OVC030 | 60.8 | 48.2 | 63% | 29.95 | 0.0 | |||||||
| 03 | 14:00 | SE 6 | 7.00 | Overcast | FEW020 OVC025 | 60.8 | 50 | 68% | 29.95 | 0.0 | |||||||
| 03 | 13:00 | E 8 | 7.00 | Fog/Mist | OVC024 | 60.8 | 53.6 | 77% | 29.95 | 0.0 | |||||||
| 03 | 11:55 | E 6 | 7.00 | Fog/Mist | OVC019 | 57.2 | 55.4 | 94% | 29.97 | 0.0 | |||||||
| 03 | 10:55 | S 3 | 1.00 | Fog/Mist | OVC009 | 55.4 | 55.4 | 100% | 29.99 | 0.0 | |||||||
| 03 | 09:55 | S 8 | 1.50 | Overcast | OVC009 | 55.4 | 55.4 | 100% | 29.98 | 0.0 | |||||||
| 03 | 08:55 | SE 7 | 1.00 | Fog/Mist | OVC009 | 57.2 | 57.2 | 100% | 29.96 | 0.0 | |||||||
| 03 | 07:55 | E 3 | 2.00 | Fog/Mist | OVC009 | 57.2 | 57.2 | 100% | 29.95 | 0.0 | |||||||
| Date | Time (pdt) | Wind (mph) | Vis. (mi.) | Weather | Sky Cond. | Air | Dwpt | Max. | Min. | Relative Humidity | Wind Chill (°F) | Heat Index (°F) | altimeter (in) | sea level (mb) | 1 hr | 3 hr | 6 hr |
| 6 hour | |||||||||||||||||
| Temperature (ºF) | Pressure | Precipitation (in) | |||||||||||||||